sensor_id;sensor_type;location;lat;lon;timestamp;temperature;humidity
7167;DHT22;3625;51.762;14.320;2023-12-07T00:02:05;1.90;99.90
7167;DHT22;3625;51.762;14.320;2023-12-07T00:04:35;1.90;99.90
7167;DHT22;3625;51.762;14.320;2023-12-07T00:07:04;1.90;99.90
7167;DHT22;3625;51.762;14.320;2023-12-07T00:09:33;1.80;99.90
7167;DHT22;3625;51.762;14.320;2023-12-07T00:12:02;1.80;99.90
7167;DHT22;3625;51.762;14.320;2023-12-07T00:14:30;1.80;99.90
7167;DHT22;3625;51.762;14.320;2023-12-07T00:16:59;1.80;99.90
7167;DHT22;3625;51.762;14.320;2023-12-07T00:19:28;1.80;99.90
7167;DHT22;3625;51.762;14.320;2023-12-07T00:21:58;1.70;99.90
7167;DHT22;3625;51.762;14.320;2023-12-07T00:24:27;1.70;99.90
7167;DHT22;3625;51.762;14.320;2023-12-07T00:26:55;1.70;99.90
7167;DHT22;3625;51.762;14.320;2023-12-07T00:29:24;1.60;99.90
7167;DHT22;3625;51.762;14.320;2023-12-07T00:31:53;1.70;99.90
7167;DHT22;3625;51.762;14.320;2023-12-07T00:34:22;1.60;99.90
7167;DHT22;3625;51.762;14.320;2023-12-07T00:36:51;1.60;99.90
7167;DHT22;3625;51.762;14.320;2023-12-07T00:39:21;1.60;99.90
7167;DHT22;3625;51.762;14.320;2023-12-07T00:41:49;1.60;99.90
7167;DHT22;3625;51.762;14.320;2023-12-07T00:44:18;1.60;99.90
7167;DHT22;3625;51.762;14.320;2023-12-07T00:46:47;1.60;99.90
7167;DHT22;3625;51.762;14.320;2023-12-07T00:49:16;1.60;99.90
7167;DHT22;3625;51.762;14.320;2023-12-07T00:51:45;1.60;99.90
7167;DHT22;3625;51.762;14.320;2023-12-07T00:54:13;1.60;99.90
7167;DHT22;3625;51.762;14.320;2023-12-07T00:56:43;1.60;99.90
7167;DHT22;3625;51.762;14.320;2023-12-07T00:59:12;1.50;99.90
7167;DHT22;3625;51.762;14.320;2023-12-07T01:01:41;1.50;99.90
7167;DHT22;3625;51.762;14.320;2023-12-07T01:04:09;1.50;99.90
7167;DHT22;3625;51.762;14.320;2023-12-07T01:06:38;1.50;99.90
7167;DHT22;3625;51.762;14.320;2023-12-07T01:09:07;1.50;99.90
7167;DHT22;3625;51.762;14.320;2023-12-07T01:11:40;1.50;99.90
7167;DHT22;3625;51.762;14.320;2023-12-07T01:14:10;1.50;99.90
7167;DHT22;3625;51.762;14.320;2023-12-07T01:16:39;1.40;99.90
7167;DHT22;3625;51.762;14.320;2023-12-07T01:19:08;1.40;99.90
7167;DHT22;3625;51.762;14.320;2023-12-07T01:21:36;1.40;99.90
7167;DHT22;3625;51.762;14.320;2023-12-07T01:24:06;1.40;99.90
7167;DHT22;3625;51.762;14.320;2023-12-07T01:26:42;1.30;99.90
7167;DHT22;3625;51.762;14.320;2023-12-07T01:29:12;1.30;99.90
7167;DHT22;3625;51.762;14.320;2023-12-07T01:31:41;1.30;99.90
7167;DHT22;3625;51.762;14.320;2023-12-07T01:34:10;1.30;99.90
7167;DHT22;3625;51.762;14.320;2023-12-07T01:36:39;1.20;99.90
7167;DHT22;3625;51.762;14.320;2023-12-07T01:39:08;1.20;99.90
7167;DHT22;3625;51.762;14.320;2023-12-07T01:41:39;1.10;99.90
7167;DHT22;3625;51.762;14.320;2023-12-07T01:44:08;1.10;99.90
7167;DHT22;3625;51.762;14.320;2023-12-07T01:46:38;1.00;99.90
7167;DHT22;3625;51.762;14.320;2023-12-07T01:49:08;1.00;99.90
7167;DHT22;3625;51.762;14.320;2023-12-07T01:51:40;0.90;99.90
7167;DHT22;3625;51.762;14.320;2023-12-07T01:54:09;0.90;99.90
7167;DHT22;3625;51.762;14.320;2023-12-07T01:56:38;0.80;99.90
7167;DHT22;3625;51.762;14.320;2023-12-07T01:59:07;0.80;99.90
7167;DHT22;3625;51.762;14.320;2023-12-07T02:01:39;0.80;99.90
7167;DHT22;3625;51.762;14.320;2023-12-07T02:04:08;0.80;99.90
7167;DHT22;3625;51.762;14.320;2023-12-07T02:06:38;0.80;99.90
7167;DHT22;3625;51.762;14.320;2023-12-07T02:09:07;0.90;99.90
7167;DHT22;3625;51.762;14.320;2023-12-07T02:11:36;0.90;99.90
7167;DHT22;3625;51.762;14.320;2023-12-07T02:14:04;1.00;99.90
7167;DHT22;3625;51.762;14.320;2023-12-07T02:16:41;1.10;99.90
7167;DHT22;3625;51.762;14.320;2023-12-07T02:19:24;1.10;99.90
7167;DHT22;3625;51.762;14.320;2023-12-07T02:22:14;1.20;99.90
7167;DHT22;3625;51.762;14.320;2023-12-07T02:24:54;1.30;99.90
7167;DHT22;3625;51.762;14.320;2023-12-07T02:27:37;1.40;99.90
7167;DHT22;3625;51.762;14.320;2023-12-07T02:30:08;1.50;99.90
7167;DHT22;3625;51.762;14.320;2023-12-07T02:32:38;1.50;99.90
7167;DHT22;3625;51.762;14.320;2023-12-07T02:35:09;1.60;99.90
7167;DHT22;3625;51.762;14.320;2023-12-07T02:37:42;1.60;99.90
7167;DHT22;3625;51.762;14.320;2023-12-07T02:40:15;1.60;99.90
7167;DHT22;3625;51.762;14.320;2023-12-07T02:42:47;1.70;99.90
7167;DHT22;3625;51.762;14.320;2023-12-07T02:45:16;1.70;99.90
7167;DHT22;3625;51.762;14.320;2023-12-07T02:47:45;1.70;99.90
7167;DHT22;3625;51.762;14.320;2023-12-07T02:50:14;1.80;99.90
7167;DHT22;3625;51.762;14.320;2023-12-07T02:52:43;1.80;99.90
7167;DHT22;3625;51.762;14.320;2023-12-07T02:55:12;1.80;99.90
7167;DHT22;3625;51.762;14.320;2023-12-07T02:57:40;1.80;99.90
7167;DHT22;3625;51.762;14.320;2023-12-07T03:00:11;1.90;99.90
7167;DHT22;3625;51.762;14.320;2023-12-07T03:02:41;1.90;99.90
7167;DHT22;3625;51.762;14.320;2023-12-07T03:05:10;1.90;99.90
7167;DHT22;3625;51.762;14.320;2023-12-07T03:07:38;1.90;99.90
7167;DHT22;3625;51.762;14.320;2023-12-07T03:10:07;1.90;99.90
7167;DHT22;3625;51.762;14.320;2023-12-07T03:12:37;1.90;99.90
7167;DHT22;3625;51.762;14.320;2023-12-07T03:15:06;1.90;99.90
7167;DHT22;3625;51.762;14.320;2023-12-07T03:17:38;1.90;99.90
7167;DHT22;3625;51.762;14.320;2023-12-07T03:20:08;2.70;99.90
7167;DHT22;3625;51.762;14.320;2023-12-07T03:22:37;1.90;99.90
7167;DHT22;3625;51.762;14.320;2023-12-07T03:25:07;1.90;99.90
7167;DHT22;3625;51.762;14.320;2023-12-07T03:27:37;2.00;99.90
7167;DHT22;3625;51.762;14.320;2023-12-07T03:30:07;2.00;99.90
7167;DHT22;3625;51.762;14.320;2023-12-07T03:32:38;2.00;99.90
7167;DHT22;3625;51.762;14.320;2023-12-07T03:35:07;2.00;99.90
7167;DHT22;3625;51.762;14.320;2023-12-07T03:37:35;2.00;99.90
7167;DHT22;3625;51.762;14.320;2023-12-07T03:40:05;2.00;99.90
7167;DHT22;3625;51.762;14.320;2023-12-07T03:42:36;2.00;99.90
7167;DHT22;3625;51.762;14.320;2023-12-07T03:45:22;2.00;99.90
7167;DHT22;3625;51.762;14.320;2023-12-07T03:47:52;2.00;99.90
7167;DHT22;3625;51.762;14.320;2023-12-07T03:50:21;2.00;99.90
7167;DHT22;3625;51.762;14.320;2023-12-07T03:52:50;2.10;99.90
7167;DHT22;3625;51.762;14.320;2023-12-07T03:55:18;2.10;99.90
7167;DHT22;3625;51.762;14.320;2023-12-07T03:57:47;2.10;99.90
7167;DHT22;3625;51.762;14.320;2023-12-07T04:00:16;2.10;99.90
7167;DHT22;3625;51.762;14.320;2023-12-07T04:02:45;2.10;99.90
7167;DHT22;3625;51.762;14.320;2023-12-07T04:05:15;2.10;99.90
7167;DHT22;3625;51.762;14.320;2023-12-07T04:07:43;2.10;99.90
7167;DHT22;3625;51.762;14.320;2023-12-07T04:10:12;2.10;99.90
7167;DHT22;3625;51.762;14.320;2023-12-07T04:12:41;2.20;99.90
7167;DHT22;3625;51.762;14.320;2023-12-07T04:15:10;2.20;99.90
7167;DHT22;3625;51.762;14.320;2023-12-07T04:17:42;2.20;99.90
7167;DHT22;3625;51.762;14.320;2023-12-07T04:20:11;2.20;99.90
7167;DHT22;3625;51.762;14.320;2023-12-07T04:22:41;2.10;99.90
7167;DHT22;3625;51.762;14.320;2023-12-07T04:25:12;3.70;99.90
7167;DHT22;3625;51.762;14.320;2023-12-07T04:27:41;2.20;99.90
7167;DHT22;3625;51.762;14.320;2023-12-07T04:30:11;2.20;99.90
7167;DHT22;3625;51.762;14.320;2023-12-07T04:32:40;2.20;99.90
7167;DHT22;3625;51.762;14.320;2023-12-07T04:35:09;2.20;99.90
7167;DHT22;3625;51.762;14.320;2023-12-07T04:37:38;2.20;99.90
7167;DHT22;3625;51.762;14.320;2023-12-07T04:40:09;2.20;99.90
7167;DHT22;3625;51.762;14.320;2023-12-07T04:42:38;2.20;99.90
7167;DHT22;3625;51.762;14.320;2023-12-07T04:45:08;2.30;99.90
7167;DHT22;3625;51.762;14.320;2023-12-07T04:47:37;2.30;99.90
7167;DHT22;3625;51.762;14.320;2023-12-07T04:50:06;2.30;99.90
7167;DHT22;3625;51.762;14.320;2023-12-07T04:52:35;2.30;99.90
7167;DHT22;3625;51.762;14.320;2023-12-07T04:55:05;2.30;99.90
7167;DHT22;3625;51.762;14.320;2023-12-07T04:57:36;2.40;99.90
7167;DHT22;3625;51.762;14.320;2023-12-07T05:00:06;2.40;99.90
7167;DHT22;3625;51.762;14.320;2023-12-07T05:02:37;2.40;99.90
7167;DHT22;3625;51.762;14.320;2023-12-07T05:05:06;2.40;99.90
7167;DHT22;3625;51.762;14.320;2023-12-07T05:07:36;2.40;99.90
7167;DHT22;3625;51.762;14.320;2023-12-07T05:10:05;2.40;99.90
7167;DHT22;3625;51.762;14.320;2023-12-07T05:12:53;2.40;99.90
7167;DHT22;3625;51.762;14.320;2023-12-07T05:15:24;2.40;99.90
7167;DHT22;3625;51.762;14.320;2023-12-07T05:17:52;2.40;99.90
7167;DHT22;3625;51.762;14.320;2023-12-07T05:20:42;2.40;99.90
7167;DHT22;3625;51.762;14.320;2023-12-07T05:23:11;2.40;99.90
7167;DHT22;3625;51.762;14.320;2023-12-07T05:25:39;2.40;99.90
7167;DHT22;3625;51.762;14.320;2023-12-07T05:28:10;2.40;99.90
7167;DHT22;3625;51.762;14.320;2023-12-07T05:30:38;2.40;99.90
7167;DHT22;3625;51.762;14.320;2023-12-07T05:33:09;2.40;99.90
7167;DHT22;3625;51.762;14.320;2023-12-07T05:35:38;2.40;99.90
7167;DHT22;3625;51.762;14.320;2023-12-07T05:38:06;2.50;99.90
7167;DHT22;3625;51.762;14.320;2023-12-07T05:40:36;2.50;99.90
7167;DHT22;3625;51.762;14.320;2023-12-07T05:43:04;2.40;99.90
7167;DHT22;3625;51.762;14.320;2023-12-07T05:45:36;2.50;99.90
7167;DHT22;3625;51.762;14.320;2023-12-07T05:48:05;2.50;99.90
7167;DHT22;3625;51.762;14.320;2023-12-07T05:50:34;2.50;99.90
7167;DHT22;3625;51.762;14.320;2023-12-07T05:53:06;2.50;99.90
7167;DHT22;3625;51.762;14.320;2023-12-07T05:55:36;2.50;99.90
7167;DHT22;3625;51.762;14.320;2023-12-07T05:58:05;2.50;99.90
7167;DHT22;3625;51.762;14.320;2023-12-07T06:00:33;2.50;99.90
7167;DHT22;3625;51.762;14.320;2023-12-07T06:03:03;2.60;99.90
7167;DHT22;3625;51.762;14.320;2023-12-07T06:05:32;2.50;99.90
7167;DHT22;3625;51.762;14.320;2023-12-07T06:08:01;2.60;99.90
7167;DHT22;3625;51.762;14.320;2023-12-07T06:10:31;2.60;99.90
7167;DHT22;3625;51.762;14.320;2023-12-07T06:12:59;2.60;99.90
7167;DHT22;3625;51.762;14.320;2023-12-07T06:15:30;2.60;99.90
7167;DHT22;3625;51.762;14.320;2023-12-07T06:17:59;2.60;99.90
7167;DHT22;3625;51.762;14.320;2023-12-07T06:20:29;2.60;99.90
7167;DHT22;3625;51.762;14.320;2023-12-07T06:23:00;1.50;99.90
7167;DHT22;3625;51.762;14.320;2023-12-07T06:25:30;2.60;99.90
7167;DHT22;3625;51.762;14.320;2023-12-07T06:27:59;2.60;99.90
7167;DHT22;3625;51.762;14.320;2023-12-07T06:30:28;2.60;99.90
7167;DHT22;3625;51.762;14.320;2023-12-07T06:32:57;2.60;99.90
7167;DHT22;3625;51.762;14.320;2023-12-07T06:35:26;2.60;99.90
7167;DHT22;3625;51.762;14.320;2023-12-07T06:37:59;2.60;99.90
7167;DHT22;3625;51.762;14.320;2023-12-07T06:40:27;2.60;99.90
7167;DHT22;3625;51.762;14.320;2023-12-07T06:42:57;2.60;99.90
7167;DHT22;3625;51.762;14.320;2023-12-07T06:45:26;2.60;99.90
7167;DHT22;3625;51.762;14.320;2023-12-07T06:47:57;2.70;99.90
7167;DHT22;3625;51.762;14.320;2023-12-07T06:50:26;2.70;99.90
7167;DHT22;3625;51.762;14.320;2023-12-07T06:52:56;2.70;99.90
7167;DHT22;3625;51.762;14.320;2023-12-07T06:55:24;2.70;99.90
7167;DHT22;3625;51.762;14.320;2023-12-07T06:57:53;2.70;99.90
7167;DHT22;3625;51.762;14.320;2023-12-07T07:00:29;2.70;99.90
7167;DHT22;3625;51.762;14.320;2023-12-07T07:03:03;2.70;99.90
7167;DHT22;3625;51.762;14.320;2023-12-07T07:05:36;2.70;99.90
7167;DHT22;3625;51.762;14.320;2023-12-07T07:08:09;2.70;99.90
7167;DHT22;3625;51.762;14.320;2023-12-07T07:10:38;2.70;99.90
7167;DHT22;3625;51.762;14.320;2023-12-07T07:13:06;2.70;99.90
7167;DHT22;3625;51.762;14.320;2023-12-07T07:15:35;2.70;99.90
7167;DHT22;3625;51.762;14.320;2023-12-07T07:18:04;2.80;99.90
7167;DHT22;3625;51.762;14.320;2023-12-07T07:20:33;2.70;99.90
7167;DHT22;3625;51.762;14.320;2023-12-07T07:23:05;2.80;99.90
7167;DHT22;3625;51.762;14.320;2023-12-07T07:25:36;2.70;99.90
7167;DHT22;3625;51.762;14.320;2023-12-07T07:28:05;2.70;99.90
7167;DHT22;3625;51.762;14.320;2023-12-07T07:30:34;2.80;99.90
7167;DHT22;3625;51.762;14.320;2023-12-07T07:33:03;2.80;99.90
7167;DHT22;3625;51.762;14.320;2023-12-07T07:35:32;2.80;99.90
7167;DHT22;3625;51.762;14.320;2023-12-07T07:38:01;2.80;99.90
7167;DHT22;3625;51.762;14.320;2023-12-07T07:40:29;2.90;99.90
7167;DHT22;3625;51.762;14.320;2023-12-07T07:43:02;2.90;99.90
7167;DHT22;3625;51.762;14.320;2023-12-07T07:45:31;3.00;99.90
7167;DHT22;3625;51.762;14.320;2023-12-07T07:48:00;3.00;99.90
7167;DHT22;3625;51.762;14.320;2023-12-07T07:50:28;3.00;99.90
7167;DHT22;3625;51.762;14.320;2023-12-07T07:52:57;3.00;99.90
7167;DHT22;3625;51.762;14.320;2023-12-07T07:55:25;3.00;99.90
7167;DHT22;3625;51.762;14.320;2023-12-07T07:57:54;3.00;99.90
7167;DHT22;3625;51.762;14.320;2023-12-07T08:00:24;3.10;99.90
7167;DHT22;3625;51.762;14.320;2023-12-07T08:02:55;3.10;99.90
7167;DHT22;3625;51.762;14.320;2023-12-07T08:05:24;3.10;99.90
7167;DHT22;3625;51.762;14.320;2023-12-07T08:07:53;3.10;99.90
7167;DHT22;3625;51.762;14.320;2023-12-07T08:10:22;3.20;99.90
7167;DHT22;3625;51.762;14.320;2023-12-07T08:12:51;3.20;99.90
7167;DHT22;3625;51.762;14.320;2023-12-07T08:15:19;3.20;99.90
7167;DHT22;3625;51.762;14.320;2023-12-07T08:17:50;3.20;99.90
7167;DHT22;3625;51.762;14.320;2023-12-07T08:20:19;3.30;99.90
7167;DHT22;3625;51.762;14.320;2023-12-07T08:22:48;3.30;99.90
7167;DHT22;3625;51.762;14.320;2023-12-07T08:25:17;3.30;99.90
7167;DHT22;3625;51.762;14.320;2023-12-07T08:27:46;3.40;99.90
7167;DHT22;3625;51.762;14.320;2023-12-07T08:30:15;3.40;99.90
7167;DHT22;3625;51.762;14.320;2023-12-07T08:32:44;3.40;99.90
7167;DHT22;3625;51.762;14.320;2023-12-07T08:35:14;5.10;99.90
7167;DHT22;3625;51.762;14.320;2023-12-07T08:37:43;3.50;99.90
7167;DHT22;3625;51.762;14.320;2023-12-07T08:40:12;3.50;99.90
7167;DHT22;3625;51.762;14.320;2023-12-07T08:42:45;3.50;99.90
7167;DHT22;3625;51.762;14.320;2023-12-07T08:45:18;3.50;99.90
7167;DHT22;3625;51.762;14.320;2023-12-07T08:47:47;3.50;99.90
7167;DHT22;3625;51.762;14.320;2023-12-07T08:50:17;3.50;99.90
7167;DHT22;3625;51.762;14.320;2023-12-07T08:52:46;3.60;99.90
7167;DHT22;3625;51.762;14.320;2023-12-07T08:55:23;3.60;99.90
7167;DHT22;3625;51.762;14.320;2023-12-07T08:57:53;3.60;99.90
7167;DHT22;3625;51.762;14.320;2023-12-07T09:00:22;3.60;99.90
7167;DHT22;3625;51.762;14.320;2023-12-07T09:02:52;3.60;99.90
7167;DHT22;3625;51.762;14.320;2023-12-07T09:05:22;3.60;99.90
7167;DHT22;3625;51.762;14.320;2023-12-07T09:07:51;3.60;99.90
7167;DHT22;3625;51.762;14.320;2023-12-07T09:10:20;3.60;99.90
7167;DHT22;3625;51.762;14.320;2023-12-07T09:12:49;3.60;99.90
7167;DHT22;3625;51.762;14.320;2023-12-07T09:15:18;3.60;99.90
7167;DHT22;3625;51.762;14.320;2023-12-07T09:17:48;3.70;99.90
7167;DHT22;3625;51.762;14.320;2023-12-07T09:20:17;3.70;99.90
7167;DHT22;3625;51.762;14.320;2023-12-07T09:22:47;3.70;99.90
7167;DHT22;3625;51.762;14.320;2023-12-07T09:25:16;3.70;99.90
7167;DHT22;3625;51.762;14.320;2023-12-07T09:27:46;3.70;99.90
7167;DHT22;3625;51.762;14.320;2023-12-07T09:30:16;3.70;99.90
7167;DHT22;3625;51.762;14.320;2023-12-07T09:32:45;3.80;99.90
7167;DHT22;3625;51.762;14.320;2023-12-07T09:35:14;3.80;99.90
7167;DHT22;3625;51.762;14.320;2023-12-07T09:37:49;3.80;99.90
7167;DHT22;3625;51.762;14.320;2023-12-07T09:40:19;3.80;99.90
7167;DHT22;3625;51.762;14.320;2023-12-07T09:42:50;3.80;99.90
7167;DHT22;3625;51.762;14.320;2023-12-07T09:45:20;3.90;99.90
7167;DHT22;3625;51.762;14.320;2023-12-07T09:47:52;3.90;99.90
7167;DHT22;3625;51.762;14.320;2023-12-07T09:50:23;4.00;99.90
7167;DHT22;3625;51.762;14.320;2023-12-07T09:52:57;4.10;99.90
7167;DHT22;3625;51.762;14.320;2023-12-07T09:55:35;4.10;99.90
7167;DHT22;3625;51.762;14.320;2023-12-07T09:58:05;4.20;99.90
7167;DHT22;3625;51.762;14.320;2023-12-07T10:00:38;4.20;99.90
7167;DHT22;3625;51.762;14.320;2023-12-07T10:03:07;4.30;99.90
7167;DHT22;3625;51.762;14.320;2023-12-07T10:05:54;4.30;99.90
7167;DHT22;3625;51.762;14.320;2023-12-07T10:08:30;4.40;99.90
7167;DHT22;3625;51.762;14.320;2023-12-07T10:11:04;4.60;99.90
7167;DHT22;3625;51.762;14.320;2023-12-07T10:13:35;4.70;99.90
7167;DHT22;3625;51.762;14.320;2023-12-07T10:16:10;4.70;99.90
7167;DHT22;3625;51.762;14.320;2023-12-07T10:18:40;4.80;99.90
7167;DHT22;3625;51.762;14.320;2023-12-07T10:21:11;4.70;99.90
7167;DHT22;3625;51.762;14.320;2023-12-07T10:23:43;4.80;99.90
7167;DHT22;3625;51.762;14.320;2023-12-07T10:26:16;4.80;99.90
7167;DHT22;3625;51.762;14.320;2023-12-07T10:28:49;4.90;99.90
7167;DHT22;3625;51.762;14.320;2023-12-07T10:31:22;4.90;99.90
7167;DHT22;3625;51.762;14.320;2023-12-07T10:33:52;4.90;99.90
7167;DHT22;3625;51.762;14.320;2023-12-07T10:36:21;5.00;99.90
7167;DHT22;3625;51.762;14.320;2023-12-07T10:38:54;4.90;99.90
7167;DHT22;3625;51.762;14.320;2023-12-07T10:41:24;4.80;99.90
7167;DHT22;3625;51.762;14.320;2023-12-07T10:43:59;4.80;99.90
7167;DHT22;3625;51.762;14.320;2023-12-07T10:46:29;4.80;99.90
7167;DHT22;3625;51.762;14.320;2023-12-07T10:49:04;4.80;99.90
7167;DHT22;3625;51.762;14.320;2023-12-07T10:51:51;4.70;99.90
7167;DHT22;3625;51.762;14.320;2023-12-07T10:54:37;4.60;99.90
7167;DHT22;3625;51.762;14.320;2023-12-07T10:57:12;4.60;99.90
7167;DHT22;3625;51.762;14.320;2023-12-07T10:59:43;4.50;99.90
7167;DHT22;3625;51.762;14.320;2023-12-07T11:02:14;4.50;99.90
7167;DHT22;3625;51.762;14.320;2023-12-07T11:04:48;4.50;99.90
7167;DHT22;3625;51.762;14.320;2023-12-07T11:07:20;4.50;99.90
7167;DHT22;3625;51.762;14.320;2023-12-07T11:10:00;4.50;99.90
7167;DHT22;3625;51.762;14.320;2023-12-07T11:12:40;4.50;99.90
7167;DHT22;3625;51.762;14.320;2023-12-07T11:15:16;4.40;99.90
7167;DHT22;3625;51.762;14.320;2023-12-07T11:17:53;4.40;99.90
7167;DHT22;3625;51.762;14.320;2023-12-07T11:20:39;4.30;99.90
7167;DHT22;3625;51.762;14.320;2023-12-07T11:23:09;4.00;99.90
7167;DHT22;3625;51.762;14.320;2023-12-07T11:25:39;3.90;99.90
7167;DHT22;3625;51.762;14.320;2023-12-07T11:28:12;3.80;99.90
7167;DHT22;3625;51.762;14.320;2023-12-07T11:30:43;2.90;99.90
7167;DHT22;3625;51.762;14.320;2023-12-07T11:33:15;3.70;99.90
7167;DHT22;3625;51.762;14.320;2023-12-07T11:36:03;3.70;99.90
7167;DHT22;3625;51.762;14.320;2023-12-07T11:38:33;3.70;99.90
7167;DHT22;3625;51.762;14.320;2023-12-07T11:41:03;3.70;99.90
7167;DHT22;3625;51.762;14.320;2023-12-07T11:43:41;3.60;99.90
7167;DHT22;3625;51.762;14.320;2023-12-07T11:46:14;3.60;99.90
7167;DHT22;3625;51.762;14.320;2023-12-07T11:48:47;3.60;99.90
7167;DHT22;3625;51.762;14.320;2023-12-07T11:51:17;3.50;99.90
7167;DHT22;3625;51.762;14.320;2023-12-07T11:53:46;3.40;99.90
7167;DHT22;3625;51.762;14.320;2023-12-07T11:56:18;3.40;99.90
7167;DHT22;3625;51.762;14.320;2023-12-07T11:58:49;3.50;99.90
7167;DHT22;3625;51.762;14.320;2023-12-07T12:01:19;3.50;99.90
7167;DHT22;3625;51.762;14.320;2023-12-07T12:03:54;3.50;99.90
7167;DHT22;3625;51.762;14.320;2023-12-07T12:06:24;3.50;99.90
7167;DHT22;3625;51.762;14.320;2023-12-07T12:08:53;3.40;99.90
7167;DHT22;3625;51.762;14.320;2023-12-07T12:11:26;3.40;99.90
7167;DHT22;3625;51.762;14.320;2023-12-07T12:13:56;3.40;99.90
7167;DHT22;3625;51.762;14.320;2023-12-07T12:16:26;3.30;99.90
7167;DHT22;3625;51.762;14.320;2023-12-07T12:18:55;3.30;99.90
7167;DHT22;3625;51.762;14.320;2023-12-07T12:21:27;3.30;99.90
7167;DHT22;3625;51.762;14.320;2023-12-07T12:23:55;4.80;99.90
7167;DHT22;3625;51.762;14.320;2023-12-07T12:26:29;3.50;99.90
7167;DHT22;3625;51.762;14.320;2023-12-07T12:28:58;3.50;99.90
7167;DHT22;3625;51.762;14.320;2023-12-07T12:31:26;3.40;99.90
7167;DHT22;3625;51.762;14.320;2023-12-07T12:33:56;3.50;99.90
7167;DHT22;3625;51.762;14.320;2023-12-07T12:36:30;3.50;99.90
7167;DHT22;3625;51.762;14.320;2023-12-07T12:39:00;3.20;99.90
7167;DHT22;3625;51.762;14.320;2023-12-07T12:41:31;3.30;99.90
7167;DHT22;3625;51.762;14.320;2023-12-07T12:44:00;3.20;99.90
7167;DHT22;3625;51.762;14.320;2023-12-07T12:46:28;3.30;99.90
7167;DHT22;3625;51.762;14.320;2023-12-07T12:48:58;3.30;99.90
7167;DHT22;3625;51.762;14.320;2023-12-07T12:51:29;3.20;99.90
7167;DHT22;3625;51.762;14.320;2023-12-07T12:53:59;3.20;99.90
7167;DHT22;3625;51.762;14.320;2023-12-07T12:56:30;3.30;99.90
7167;DHT22;3625;51.762;14.320;2023-12-07T12:58:59;3.40;99.90
7167;DHT22;3625;51.762;14.320;2023-12-07T13:01:32;3.30;99.90
7167;DHT22;3625;51.762;14.320;2023-12-07T13:04:01;3.30;99.90
7167;DHT22;3625;51.762;14.320;2023-12-07T13:06:31;3.30;99.90
7167;DHT22;3625;51.762;14.320;2023-12-07T13:08:59;3.20;99.90
7167;DHT22;3625;51.762;14.320;2023-12-07T13:11:28;3.10;99.90
7167;DHT22;3625;51.762;14.320;2023-12-07T13:13:58;3.10;99.90
7167;DHT22;3625;51.762;14.320;2023-12-07T13:16:33;3.00;99.90
7167;DHT22;3625;51.762;14.320;2023-12-07T13:19:02;3.00;99.90
7167;DHT22;3625;51.762;14.320;2023-12-07T13:21:31;3.00;99.90
7167;DHT22;3625;51.762;14.320;2023-12-07T13:24:00;3.00;99.90
7167;DHT22;3625;51.762;14.320;2023-12-07T13:26:31;3.00;99.90
7167;DHT22;3625;51.762;14.320;2023-12-07T13:29:02;3.00;99.90
7167;DHT22;3625;51.762;14.320;2023-12-07T13:31:31;3.00;99.90
7167;DHT22;3625;51.762;14.320;2023-12-07T13:33:59;3.00;99.90
7167;DHT22;3625;51.762;14.320;2023-12-07T13:36:35;3.00;99.90
7167;DHT22;3625;51.762;14.320;2023-12-07T13:39:04;3.00;99.90
7167;DHT22;3625;51.762;14.320;2023-12-07T13:41:37;3.00;99.90
7167;DHT22;3625;51.762;14.320;2023-12-07T13:44:07;3.10;99.90
7167;DHT22;3625;51.762;14.320;2023-12-07T13:46:42;3.00;99.90
7167;DHT22;3625;51.762;14.320;2023-12-07T13:49:14;3.10;99.90
7167;DHT22;3625;51.762;14.320;2023-12-07T13:51:54;3.20;99.90
7167;DHT22;3625;51.762;14.320;2023-12-07T13:54:23;3.30;99.90
7167;DHT22;3625;51.762;14.320;2023-12-07T13:57:12;3.30;99.90
7167;DHT22;3625;51.762;14.320;2023-12-07T13:59:42;3.40;99.90
7167;DHT22;3625;51.762;14.320;2023-12-07T14:02:11;3.40;99.90
7167;DHT22;3625;51.762;14.320;2023-12-07T14:04:39;3.40;99.90
7167;DHT22;3625;51.762;14.320;2023-12-07T14:07:09;3.50;99.90
7167;DHT22;3625;51.762;14.320;2023-12-07T14:09:43;3.40;99.90
7167;DHT22;3625;51.762;14.320;2023-12-07T14:12:24;3.50;99.90
7167;DHT22;3625;51.762;14.320;2023-12-07T14:14:54;3.50;99.90
7167;DHT22;3625;51.762;14.320;2023-12-07T14:17:23;3.50;99.90
7167;DHT22;3625;51.762;14.320;2023-12-07T14:19:55;3.50;99.90
7167;DHT22;3625;51.762;14.320;2023-12-07T14:22:43;3.60;99.90
7167;DHT22;3625;51.762;14.320;2023-12-07T14:25:13;3.50;99.90
7167;DHT22;3625;51.762;14.320;2023-12-07T14:27:43;3.30;99.90
7167;DHT22;3625;51.762;14.320;2023-12-07T14:30:14;3.30;99.90
7167;DHT22;3625;51.762;14.320;2023-12-07T14:32:44;3.30;99.90
7167;DHT22;3625;51.762;14.320;2023-12-07T14:35:19;3.30;99.90
7167;DHT22;3625;51.762;14.320;2023-12-07T14:37:49;3.30;99.90
7167;DHT22;3625;51.762;14.320;2023-12-07T14:40:18;3.40;99.90
7167;DHT22;3625;51.762;14.320;2023-12-07T14:42:49;3.40;99.90
7167;DHT22;3625;51.762;14.320;2023-12-07T14:45:20;5.00;99.90
7167;DHT22;3625;51.762;14.320;2023-12-07T14:47:49;3.40;99.90
7167;DHT22;3625;51.762;14.320;2023-12-07T14:50:18;3.40;99.90
7167;DHT22;3625;51.762;14.320;2023-12-07T14:52:47;3.40;99.90
7167;DHT22;3625;51.762;14.320;2023-12-07T14:55:16;3.30;99.90
7167;DHT22;3625;51.762;14.320;2023-12-07T14:57:46;3.30;99.90
7167;DHT22;3625;51.762;14.320;2023-12-07T15:00:19;3.30;99.90
7167;DHT22;3625;51.762;14.320;2023-12-07T15:02:49;3.30;99.90
7167;DHT22;3625;51.762;14.320;2023-12-07T15:05:17;3.40;99.90
7167;DHT22;3625;51.762;14.320;2023-12-07T15:07:47;3.30;99.90
7167;DHT22;3625;51.762;14.320;2023-12-07T15:10:15;3.40;99.90
7167;DHT22;3625;51.762;14.320;2023-12-07T15:12:45;3.40;99.90
7167;DHT22;3625;51.762;14.320;2023-12-07T15:15:14;3.40;99.90
7167;DHT22;3625;51.762;14.320;2023-12-07T15:17:44;3.40;99.90
7167;DHT22;3625;51.762;14.320;2023-12-07T15:20:14;3.40;99.90
7167;DHT22;3625;51.762;14.320;2023-12-07T15:22:43;3.40;99.90
7167;DHT22;3625;51.762;14.320;2023-12-07T15:25:13;3.40;99.90
7167;DHT22;3625;51.762;14.320;2023-12-07T15:27:42;3.40;99.90
7167;DHT22;3625;51.762;14.320;2023-12-07T15:30:13;3.40;99.90
7167;DHT22;3625;51.762;14.320;2023-12-07T15:32:44;3.40;99.90
7167;DHT22;3625;51.762;14.320;2023-12-07T15:35:13;3.40;99.90
7167;DHT22;3625;51.762;14.320;2023-12-07T15:37:42;3.40;99.90
7167;DHT22;3625;51.762;14.320;2023-12-07T15:40:11;3.40;99.90
7167;DHT22;3625;51.762;14.320;2023-12-07T15:42:40;3.40;99.90
7167;DHT22;3625;51.762;14.320;2023-12-07T15:45:09;3.40;99.90
7167;DHT22;3625;51.762;14.320;2023-12-07T15:47:38;3.40;99.90
7167;DHT22;3625;51.762;14.320;2023-12-07T15:50:08;3.40;99.90
7167;DHT22;3625;51.762;14.320;2023-12-07T15:52:38;3.40;99.90
7167;DHT22;3625;51.762;14.320;2023-12-07T15:55:07;3.40;99.90
7167;DHT22;3625;51.762;14.320;2023-12-07T15:57:37;3.40;99.90
7167;DHT22;3625;51.762;14.320;2023-12-07T16:00:07;3.40;99.90
7167;DHT22;3625;51.762;14.320;2023-12-07T16:02:36;3.40;99.90
7167;DHT22;3625;51.762;14.320;2023-12-07T16:05:05;3.40;99.90
7167;DHT22;3625;51.762;14.320;2023-12-07T16:07:36;3.40;99.90
7167;DHT22;3625;51.762;14.320;2023-12-07T16:10:07;3.40;99.90
7167;DHT22;3625;51.762;14.320;2023-12-07T16:12:37;3.40;99.90
7167;DHT22;3625;51.762;14.320;2023-12-07T16:15:07;3.40;99.90
7167;DHT22;3625;51.762;14.320;2023-12-07T16:17:36;3.40;99.90
7167;DHT22;3625;51.762;14.320;2023-12-07T16:20:08;3.40;99.90
7167;DHT22;3625;51.762;14.320;2023-12-07T16:22:44;3.40;99.90
7167;DHT22;3625;51.762;14.320;2023-12-07T16:25:13;3.50;99.90